Airfield :
LOGIN :

Register | Disclaimer

   EN    FR    IT 

 










Legend :    VFR   Marginal VFR   IFR   Intensive IFR   Very Intensive IFR
Visi :
Ceiling :
>= 8 km
>= 3000ft
5 to 8 km
1000 to 3000 ft
1500m to 5 km
500 to 1000 ft
800 to 1500m
200 to 500 ft
< 800m
< 200 ft
Symbols :   Thunderstorms  Fog  Heavy snow  Heavy precipitations  Wind > 20 kt
SIGMETs :     Misc.  Thunderstorms  Icing  Turbulence  Mountain Waves  Volcanic Ashes






- Airport Elevation : 33 ft
- IATA code : MHZ


EGUN - RAF Mildenhall

CURRENT METAR :
  • 262055Z 26006KT 9999 CLR 07/05 A2950 RMK AO2A SLP990 WND DATA ESTMD RVRNO $

EXPIRED METARs :
  • 261955Z 27006KT 9999 FEW070 08/05 A2948 RMK AO2A SLP984 WND DATA ESTMD RVRNO $
  • 261855Z 27008KT 9999 FEW039 09/06 A2947 RMK AO2A SLP979 WND DATA ESTMD RVRNO $

TAF TAF EGUN
Valid from the 26 at 20:00 until the 28 at 02:00 UTC


262000Z 2620/2802 23012KT 9999 SCT030 QNH2944INS
BECMG 2710/2711 19015G25KT 8000 -SHRA BKN010 QNH2934INS
BECMG 2719/2720 25012G20KT 9999 NSW SCT015 QNH2942INS TX13/2718Z TN05/2707Z



MET'MAP, your aeronautical weather chart ! - Copyright ORBIFLY December 2007 - Disclaimer

ORBIFLY MET'MAP TEAM :

Programming & Development : Alexandra Zaïnal
Concept & original design : Baudouin d'Aumeries
Assistance for programming : Marc-Olivier Méhu
Technical & hardware support : Manuel Goepfert

Contact : metmap@orbifly.com




SOURCES & CREDITS :

   NOAA